Miami, Florida
Traffic Map
Current Weather Conditions
Miami, Florida
Scattered Clouds
Scattered Clouds
23°
Feels Like: 23°
Wind Chill: 23° Ceiling: Unl
Heat Index: 23° Visibility: 10mi
Dew Point: 17° Wind: 6mph
Humidity: 71% Direction: 110° (ESE)
Pressure: 30.19in Gusts: 0mph
Raw Report DataKMIA 170953Z 11005KT 10SM FEW034 SCT045 23/17 A3019 RMK AO2 SLP222 T02280172
Traffic Incident Summary
Active as of:
Severity:
Category:
InformationThere was an issue retrieving the traffic information for this location. Please try a different location or try again shortly.
Advertisements
Track Severe Weather on mobile